Latest Weather Observations for Grove

IDT60801

Issued at 4:41 pm EST Friday 23 August 2019 (issued every 10 minutes, with the page automatically refreshed every 10 minutes)

About weather observations | Map of weather stations | Latest weather observations for TAS | Other Formats
Station Details ID: 094220 Name: GROVE (RESEARCH STATION) Lat: -42.99 Lon: 147.07 Height: 65.0 m
Data from the previous 72 hours. | See also: Recent months at Grove
Date/Time
EST
Temp
°C
App
Temp
°C
Dew
Point
°C
Rel
Hum
%
Delta-T
°C
Wind Press
QNH
hPa
Press
MSL
hPa
Rain since
9am
mm
Dir  Spd
km/h
Gust
km/h
Spd
kts
Gust
kts
23/04:30pm 13.4 10.2 2.8 48 4.7 WSW 9 26 5 14 - - 0.0
23/04:00pm 14.2 9.7 2.2 44 5.3 W 15 35 8 19 - - 0.0
23/03:30pm 14.8 11.2 3.1 45 5.3 WNW 11 20 6 11 - - 0.0
23/03:08pm 14.6 7.6 1.9 42 5.6 WNW 28 44 15 24 - - 0.0
23/03:00pm 15.0 10.6 2.5 43 5.6 W 15 26 8 14 - - 0.0
23/02:30pm 15.0 10.0 3.4 45 5.3 W 19 30 10 16 - - 0.0
23/02:00pm 14.9 9.7 2.3 42 5.6 WNW 19 28 10 15 - - 0.0
23/01:30pm 14.3 8.5 2.3 44 5.3 NNW 22 37 12 20 - - 0.0
23/01:00pm 14.5 10.5 2.9 45 5.2 WSW 13 33 7 18 - - 0.0
23/12:30pm 14.0 9.7 1.2 41 5.5 WNW 13 20 7 11 - - 0.0
23/12:00pm 13.3 10.0 2.4 47 4.8 NNW 9 17 5 9 - - 0.0
23/11:30am 11.6 8.3 2.3 53 4.0 SW 9 15 5 8 - - 0.0
23/11:00am 10.8 8.2 3.3 60 3.3 W 6 9 3 5 - - 0.0
23/10:30am 9.4 7.8 2.6 62 2.9 CALM 0 6 0 3 - - 0.0
23/10:00am 8.5 6.8 2.0 63 2.7 CALM 0 0 0 0 - - 0.0
23/09:30am 6.2 4.3 2.6 78 1.5 NNE 2 6 1 3 - - 0.0
23/09:00am 4.7 2.2 1.7 81 1.2 N 4 7 2 4 - - 0.2
23/08:30am 2.2 -0.8 1.1 92 0.4 NE 6 9 3 5 - - 0.2
23/08:00am 0.3 - - - - NNE 7 9 4 5 - - 0.0
23/07:30am -1.2 - - - - NNE 9 11 5 6 - - 0.0
23/07:00am -2.1 - - - - NNE 6 7 3 4 - - 0.0
23/06:30am -1.8 - - - - NNE 6 9 3 5 - - 0.0
23/06:00am -2.2 - - - - NE 7 7 4 4 - - 0.0
23/05:30am -1.7 - - - - NNE 6 7 3 4 - - 0.0
23/05:00am -1.5 - - - - NNE 6 7 3 4 - - 0.0
23/04:30am -1.3 - - - - N 9 11 5 6 - - 0.0
23/04:00am -1.4 - - - - NE 6 7 3 4 - - 0.0
23/03:30am -1.2 - - - - NNE 7 7 4 4 - - 0.0
23/03:00am -0.7 - - - - ENE 6 11 3 6 - - 0.0
23/02:30am -0.2 - - - - CALM 0 0 0 0 - - 0.0
23/02:00am -0.2 - - - - CALM 0 0 0 0 - - 0.0
23/01:30am 0.6 -1.4 0.0 96 0.2 CALM 0 0 0 0 - - 0.0
23/01:00am 0.6 -2.5 0.0 96 0.2 WNW 6 9 3 5 - - 0.0
23/12:30am 0.5 -2.8 0.2 98 0.1 NE 7 11 4 6 - - 0.0
23/12:00am 0.9 -2.4 0.4 96 0.2 NNE 7 7 4 4 - - 0.0
 
Date/Time
EST
Temp
°C
App
Temp
°C
Dew
Point
°C
Rel
Hum
%
Delta-T
°C
Wind Press
QNH
hPa
Press
MSL
hPa
Rain since
9am
mm
Dir  Spd
km/h
Gust
km/h
Spd
kts
Gust
kts
22/11:30pm 0.9 -2.4 0.1 94 0.3 NNE 7 9 4 5 - - 0.0
22/11:00pm 1.6 -1.4 1.1 96 0.2 NNE 6 9 3 5 - - 0.0
22/10:30pm 1.7 -1.2 1.4 98 0.1 NE 6 7 3 4 - - 0.0
22/10:00pm 2.8 0.0 2.3 96 0.2 SSE 6 9 3 5 - - 0.0
22/09:30pm 3.5 0.6 2.5 93 0.4 NE 7 9 4 5 - - 0.0
22/09:00pm 4.0 1.7 3.0 93 0.4 NE 4 6 2 3 - - 0.0
22/08:30pm 4.4 1.7 2.9 90 0.6 NE 6 9 3 5 - - 0.0
22/08:00pm 4.7 2.0 2.5 86 0.9 ESE 6 9 3 5 - - 0.0
22/07:30pm 6.0 2.8 2.9 80 1.3 WNW 9 13 5 7 - - 0.0
22/07:00pm 7.2 3.4 1.5 67 2.3 WSW 11 15 6 8 - - 0.0
22/06:30pm 7.6 3.3 0.9 62 2.7 SW 13 19 7 10 - - 0.0
22/06:00pm 7.8 3.9 1.1 62 2.7 WSW 11 20 6 11 - - 0.0
22/05:30pm 8.1 3.1 1.2 62 2.8 WSW 17 22 9 12 - - 0.0
22/05:00pm 8.2 4.3 1.1 61 2.9 WSW 11 19 6 10 - - 0.0
22/04:30pm 8.7 3.0 0.8 57 3.2 WSW 20 33 11 18 - - 0.0
22/04:00pm 9.0 3.0 0.9 57 3.3 SW 22 41 12 22 - - 0.0
22/03:30pm 9.1 3.7 1.3 58 3.2 WSW 19 28 10 15 - - 0.0
22/03:00pm 9.2 3.6 1.5 58 3.2 WSW 20 32 11 17 - - 0.0
22/02:30pm 9.1 2.8 1.6 59 3.1 WSW 24 41 13 22 - - 0.0
22/02:00pm 9.0 3.1 1.5 59 3.1 W 22 32 12 17 - - 0.0
22/01:30pm 9.0 3.3 0.6 55 3.4 W 20 32 11 17 - - 0.0
22/01:00pm 8.9 2.1 0.8 57 3.3 WSW 26 41 14 22 - - 0.0
22/12:30pm 8.9 3.9 1.4 59 3.1 WSW 17 30 9 16 - - 0.0
22/12:00pm 7.7 2.1 1.3 64 2.6 W 20 33 11 18 - - 0.0
22/11:44am 7.7 0.5 0.4 60 2.9 W 28 48 15 26 - - 0.0
22/11:30am 8.3 3.8 2.1 65 2.6 W 15 22 8 12 - - 0.0
22/11:00am 7.0 0.9 0.7 64 2.5 WSW 22 37 12 20 - - 0.0
22/10:30am 6.7 1.7 1.2 68 2.2 WNW 17 24 9 13 - - 0.0
22/10:18am 7.1 -0.3 -0.4 59 2.9 W 28 50 15 27 - - 0.0
22/10:17am 7.1 -0.3 -0.4 59 2.9 W 28 50 15 27 - - 0.0
22/10:00am 7.1 0.6 0.5 63 2.6 WSW 24 39 13 21 - - 0.0
22/09:30am 6.5 0.7 0.1 63 2.5 WSW 20 30 11 16 - - 0.0
22/09:00am 6.2 0.3 -0.6 62 2.6 W 20 33 11 18 - - 21.0
22/08:33am 5.2 -2.4 0.6 72 1.8 W 30 52 16 28 - - 20.6
22/08:30am 5.5 -1.4 0.3 69 2.0 W 26 44 14 24 - - 20.6
22/08:00am 6.2 0.4 -1.6 57 2.9 WSW 19 32 10 17 - - 20.4
22/07:30am 4.5 -0.2 0.9 77 1.4 WSW 15 24 8 13 - - 20.4
22/07:00am 4.9 -1.6 0.2 71 1.8 WSW 24 41 13 22 - - 20.4
22/06:30am 4.5 -1.2 0.3 74 1.6 WSW 20 37 11 20 - - 20.4
22/06:00am 4.5 -0.7 0.3 74 1.6 W 17 28 9 15 - - -
22/05:33am 5.4 -2.0 -0.4 66 2.2 WSW 28 48 15 26 - - 20.4
22/05:30am 5.6 -2.8 -1.1 62 2.5 WSW 33 46 18 25 - - 20.4
22/05:29am 5.6 -2.8 -1.1 62 2.5 WSW 33 48 18 26 - - 20.4
22/05:00am 4.9 0.9 0.5 73 1.7 WSW 11 19 6 10 - - 20.2
22/04:30am 5.1 -0.2 -0.5 67 2.1 WSW 17 28 9 15 - - 20.2
22/04:00am 4.2 -0.5 1.1 80 1.2 SW 15 26 8 14 - - 20.2
22/03:30am 4.6 -0.9 0.7 76 1.5 WSW 19 32 10 17 - - 19.8
22/03:00am 5.1 -2.3 -0.8 65 2.2 WSW 28 52 15 28 - - -
22/02:54am 5.1 -2.3 -0.8 65 2.2 SW 28 52 15 28 - - 19.8
22/02:30am 5.8 -1.0 -1.8 58 2.8 SW 24 41 13 22 - - 19.6
22/02:00am 4.6 0.3 1.0 77 1.4 WSW 13 26 7 14 - - 19.6
22/01:30am 5.6 -0.5 0.5 70 2.0 WSW 22 33 12 18 - - 19.4
22/01:00am 4.8 1.8 2.3 84 1.0 WSW 7 13 4 7 - - 19.0
22/12:30am 4.7 1.4 2.7 87 0.8 SSW 9 17 5 9 - - 19.0
22/12:00am 5.0 -0.8 2.3 83 1.1 WSW 22 33 12 18 - - -
 
Date/Time
EST
Temp
°C
App
Temp
°C
Dew
Point
°C
Rel
Hum
%
Delta-T
°C
Wind Press
QNH
hPa
Press
MSL
hPa
Rain since
9am
mm
Dir  Spd
km/h
Gust
km/h
Spd
kts
Gust
kts
21/11:30pm 5.1 1.9 3.2 87 0.8 SSW 9 15 5 8 - - 17.6
21/11:00pm 5.0 1.5 3.3 89 0.7 WSW 11 24 6 13 - - 17.2
21/10:30pm 4.2 2.8 3.5 95 0.3 CALM 0 4 0 2 - - 16.6
21/10:00pm 4.3 1.6 3.8 97 0.2 N 7 9 4 5 - - 16.6
21/09:30pm 4.3 1.8 3.8 97 0.2 ENE 6 11 3 6 - - 14.4
21/09:00pm 4.2 1.5 3.7 97 0.2 E 7 11 4 6 - - -
21/08:30pm 4.4 1.9 3.9 97 0.2 S 6 7 3 4 - - 9.2
21/08:00pm 4.4 2.7 3.9 97 0.2 N 2 7 1 4 - - 8.0
21/07:30pm 4.8 2.6 3.6 92 0.5 WSW 4 7 2 4 - - 6.4
21/07:00pm 5.1 1.9 2.9 86 0.9 SW 9 17 5 9 - - 5.4
21/06:30pm 5.2 1.1 2.0 80 1.3 W 13 22 7 12 - - 5.2
21/06:00pm 5.2 1.8 3.8 91 0.6 WSW 11 26 6 14 - - 4.6
21/05:30pm 6.9 2.0 2.3 72 1.9 W 17 39 9 21 - - 2.0
21/05:00pm 7.7 2.7 1.3 64 2.6 WSW 17 33 9 18 - - 1.8
21/04:30pm 7.2 2.0 2.4 71 2.0 WSW 19 41 10 22 - - 1.8
21/04:00pm 7.2 3.2 2.9 74 1.8 SW 13 24 7 13 - - 1.6
21/03:30pm 7.1 3.2 3.6 78 1.5 WSW 13 22 7 12 - - 1.6
21/03:00pm 6.9 2.1 2.8 75 1.7 WSW 17 28 9 15 - - 1.0
21/02:30pm 8.2 0.0 0.4 58 3.1 W 33 56 18 30 - - 0.8
21/02:22pm 9.7 1.8 -1.3 46 4.3 WSW 30 56 16 30 - - 0.8
21/02:21pm 9.7 2.2 -1.3 46 4.3 WSW 28 56 15 30 - - 0.8
21/02:00pm 10.5 3.7 0.5 50 4.1 WSW 26 35 14 19 - - 0.8
21/01:30pm 8.5 0.7 1.7 62 2.8 WSW 32 63 17 34 - - 0.8
21/01:04pm 9.7 2.7 2.1 59 3.2 WSW 28 46 15 25 - - 0.8
21/01:03pm 9.7 2.7 1.8 58 3.3 WSW 28 46 15 25 - - 0.8
21/01:00pm 9.4 3.0 1.1 56 3.4 WSW 24 46 13 25 - - 0.8
21/12:30pm 9.2 4.0 2.6 63 2.8 W 19 32 10 17 - - 0.8
21/12:13pm 7.3 0.3 2.2 70 2.1 W 28 54 15 29 - - 0.8
21/12:00pm 7.6 2.5 2.9 72 2.0 WSW 19 37 10 20 - - 0.6
21/11:30am 8.8 0.7 -0.3 53 3.6 WSW 32 59 17 32 - - 0.0
21/11:28am 9.5 2.0 -1.6 46 4.3 WSW 28 50 15 27 - - 0.0
21/11:00am 9.8 3.0 0.5 52 3.8 WSW 26 52 14 28 - - 0.0
21/10:30am 8.6 0.4 0.4 56 3.3 WSW 33 57 18 31 - - 0.0
21/10:19am 8.4 1.1 0.1 56 3.3 W 28 52 15 28 - - 0.0
21/10:18am 8.4 1.1 0.1 56 3.3 W 28 52 15 28 - - 0.0
21/10:00am 8.6 1.5 1.6 61 2.9 W 28 39 15 21 - - 0.0
21/09:30am 7.6 3.6 2.9 72 2.0 SW 13 19 7 10 - - 0.0
21/09:00am 6.3 2.0 3.2 80 1.3 WSW 15 20 8 11 - - 13.6
21/08:30am 6.5 2.0 2.1 73 1.8 WSW 15 32 8 17 - - 13.6
21/08:00am 6.5 1.9 1.3 69 2.1 WSW 15 30 8 16 - - 13.6
21/07:30am 5.7 -1.5 2.8 81 1.2 WSW 30 59 16 32 - - 13.6
21/07:27am 6.0 -0.9 2.6 79 1.4 WSW 28 59 15 32 - - 13.2
21/07:26am 6.0 -0.9 2.6 79 1.4 WSW 28 59 15 32 - - 13.2
21/07:00am 7.0 0.9 0.7 64 2.5 W 22 33 12 18 - - 12.4
21/06:30am 6.7 -0.8 1.2 68 2.2 W 30 48 16 26 - - 12.4
21/06:12am 6.4 -0.6 1.7 72 1.9 W 28 46 15 25 - - 12.2
21/06:00am 6.7 0.5 2.1 72 1.9 W 24 44 13 24 - - 11.6
21/05:30am 6.5 2.4 2.1 73 1.8 WSW 13 22 7 12 - - 11.4
21/05:00am 6.2 0.6 3.6 83 1.1 WSW 22 46 12 25 - - 11.4
21/04:30am 6.6 0.2 3.3 79 1.4 WSW 26 46 14 25 - - 10.8
21/04:00am 7.6 -0.6 2.9 72 2.0 W 35 61 19 33 - - 10.4
21/03:30am 8.5 0.6 2.0 63 2.7 W 33 61 18 33 - - 10.0
21/03:28am 8.8 1.4 1.8 61 2.9 W 30 61 16 33 - - 10.0
21/03:26am 8.9 1.8 1.4 59 3.1 W 28 54 15 29 - - 10.0
21/03:00am 8.0 2.4 3.3 72 2.0 W 22 41 12 22 - - 9.8
21/02:30am 8.3 2.7 3.4 71 2.1 W 22 35 12 19 - - 9.4
21/02:00am 8.0 2.4 3.3 72 2.0 W 22 35 12 19 - - 9.4
21/01:30am 8.6 2.4 1.9 63 2.8 W 24 37 13 20 - - 9.2
21/01:14am 8.6 1.6 1.9 63 2.8 WNW 28 46 15 25 - - 9.2
21/01:12am 8.7 1.7 1.7 61 2.9 WNW 28 46 15 25 - - 9.2
21/01:00am 8.2 2.1 2.8 69 2.3 W 24 33 13 18 - - 9.2
21/12:32am 8.0 1.3 3.6 74 1.9 W 28 48 15 26 - - 9.0
21/12:30am 8.4 2.0 3.0 69 2.3 W 26 48 14 26 - - 9.0
21/12:00am 8.2 2.5 2.8 69 2.3 W 22 35 12 19 - - 8.8
 
Date/Time
EST
Temp
°C
App
Temp
°C
Dew
Point
°C
Rel
Hum
%
Delta-T
°C
Wind Press
QNH
hPa
Press
MSL
hPa
Rain since
9am
mm
Dir  Spd
km/h
Gust
km/h
Spd
kts
Gust
kts
20/11:30pm 8.3 2.3 3.1 70 2.2 WSW 24 37 13 20 - - 8.6
20/11:00pm 7.5 0.5 4.0 78 1.5 WSW 30 48 16 26 - - 8.4
20/10:55pm 7.7 -0.6 4.0 77 1.6 WSW 37 56 20 30 - - 8.2
20/10:54pm 7.7 -0.6 4.0 77 1.6 WSW 37 56 20 30 - - 8.2
20/10:51pm 8.2 -1.4 3.3 71 2.1 W 43 56 23 30 - - 8.0
20/10:50pm 8.2 -1.4 3.3 71 2.1 W 43 56 23 30 - - 8.0
20/10:30pm 8.4 3.6 2.7 67 2.4 W 17 26 9 14 - - 7.6
20/10:00pm 6.6 3.3 4.5 86 0.9 SW 11 17 6 9 - - 7.6
20/09:30pm 6.9 1.8 4.1 82 1.2 SW 20 33 11 18 - - 7.4
20/09:00pm 8.6 4.6 3.0 68 2.4 W 13 19 7 10 - - 7.0
20/08:30pm 10.7 3.4 -0.2 47 4.4 W 28 48 15 26 - - 7.0
20/08:18pm 11.2 3.3 -1.8 40 5.1 W 30 65 16 35 - - 7.0
20/08:00pm 10.7 4.9 -0.2 47 4.4 W 20 32 11 17 - - 7.0
20/07:30pm 11.2 4.5 -1.1 42 4.9 W 24 44 13 24 - - 7.0
20/07:00pm 11.3 3.8 -1.7 40 5.1 W 28 43 15 23 - - 6.8
20/06:47pm 11.4 3.8 -1.9 39 5.2 W 28 46 15 25 - - 6.8
20/06:46pm 11.4 3.8 -1.9 39 5.2 W 28 46 15 25 - - 6.8
20/06:30pm 11.2 5.3 -0.8 43 4.8 W 20 35 11 19 - - 6.8
20/06:00pm 11.9 3.8 -0.4 42 5.0 WSW 32 56 17 30 - - 6.8
20/05:30pm 11.9 3.4 0.6 46 4.7 W 35 76 19 41 - - 6.8
20/05:26pm 12.5 3.4 -0.8 40 5.4 WSW 37 76 20 41 - - 6.8
20/05:25pm 12.5 3.4 -0.8 40 5.4 WSW 37 76 20 41 - - 6.8
20/05:00pm 12.0 4.5 3.5 56 3.8 W 32 52 17 28 - - 6.8

Other formats

Comma delimited format used in spreadsheet applications
http://www.bom.gov.au/fwo/IDT60801/IDT60801.95977.axf

JavaScript Object Notation format (JSON) in row-major order
http://www.bom.gov.au/fwo/IDT60801/IDT60801.95977.json

Data quality

Most of these data are generated automatically and are frequently updated. Quality checks on data are not normally performed. It is possible for incorrect values to appear. Refer to information at About Latest Weather Observations and please check the disclaimer before using these data.